Webster City, Iowa
Current Conditions -  °F | °C
As of 10:15 PM on Thursday 27 Nov 2014 (Local Time) from KEBS Reporting Station
Overcast Overcast  
Wind Chill: -5°   Ceiling: 12000
Heat Index: 10°   Visibility: 10mi
Dew Point:   Wind: 13mph
Humidity: 67%   Direction: 140°SE
Pressure: 30.28"   Gusts: NA
Location:  42.47°N, 93.82°W
Report Text: KEBS 280415Z AUTO 14011KT 10SM FEW090 OVC120 M12/M17 A3028 RMK AO2
Loading
Personal Weather Stations






























Interactive Weather Map New forecast layout! Learn more

10-Day Weather Forecast

Advertisements
Track Severe Weather on mobile